Time;durP1;ratioP1;P1;durP2;ratioP2;P2;SDS_P1;SDS_P2;PMS_P1;PMS_P2;Temp;Humidity;BMP_temperature;BMP_pressure;BME280_temperature;BME280_humidity;BME280_pressure;Samples;Min_cycle;Max_cycle;Signal;HPM_P1;HPM_P2
2022/04/10 00:01:07;;;;;;;5.75;1.75;;;;;;;;;;5074872;28;20044;-27
2022/04/10 00:03:33;;;;;;;9.95;2.13;;;;;;;;;;5075246;28;20044;-29
2022/04/10 00:05:59;;;;;;;6.03;2.50;;;;;;;;;;5067054;28;20509;-28
2022/04/10 00:08:25;;;;;;;6.75;2.15;;;;;;;;;;5037375;28;20052;-29
2022/04/10 00:10:51;;;;;;;6.15;1.88;;;;;;;;;;5055188;28;20052;-26
2022/04/10 00:13:17;;;;;;;9.85;2.08;;;;;;;;;;5054870;28;20037;-29
2022/04/10 00:15:43;;;;;;;8.63;2.15;;;;;;;;;;5060738;28;20131;-27
2022/04/10 00:18:09;;;;;;;8.15;2.00;;;;;;;;;;5073759;28;20087;-28
2022/04/10 00:20:36;;;;;;;6.55;2.05;;;;;;;;;;5055839;28;20085;-26
2022/04/10 00:23:04;;;;;;;4.53;1.83;;;;;;;;;;5073712;28;20094;-27
2022/04/10 00:25:30;;;;;;;7.47;2.42;;;;;;;;;;5075507;28;20048;-28
2022/04/10 00:27:56;;;;;;;8.85;2.17;;;;;;;;;;5074958;28;20052;-30
2022/04/10 00:30:22;;;;;;;7.50;2.03;;;;;;;;;;5065586;28;20052;-29
2022/04/10 00:32:48;;;;;;;8.07;2.20;;;;;;;;;;5055591;28;20044;-28
2022/04/10 00:35:14;;;;;;;8.75;2.53;;;;;;;;;;5055344;28;20102;-27
2022/04/10 00:37:40;;;;;;;8.57;2.17;;;;;;;;;;5054944;28;20043;-28
2022/04/10 00:40:08;;;;;;;7.65;2.03;;;;;;;;;;5054967;28;20144;-28
2022/04/10 00:42:38;;;;;;;8.15;2.05;;;;;;;;;;5054689;28;20509;-29
2022/04/10 00:45:05;;;;;;;10.35;2.20;;;;;;;;;;5054309;28;20045;-30
2022/04/10 00:47:32;;;;;;;7.53;2.13;;;;;;;;;;5054136;28;20040;-29
2022/04/10 00:49:58;;;;;;;16.88;2.88;;;;;;;;;;5054430;28;20037;-28
2022/04/10 00:52:25;;;;;;;7.15;2.17;;;;;;;;;;5054140;28;20098;-29
2022/04/10 00:54:52;;;;;;;9.88;1.77;;;;;;;;;;5054348;28;20120;-27
2022/04/10 00:57:18;;;;;;;10.50;2.42;;;;;;;;;;5053873;28;20047;-29
2022/04/10 00:59:45;;;;;;;6.90;2.20;;;;;;;;;;5053852;28;20054;-28
2022/04/10 01:02:11;;;;;;;11.70;2.65;;;;;;;;;;5054337;28;20075;-28
2022/04/10 01:04:37;;;;;;;12.57;2.85;;;;;;;;;;5054793;28;20091;-29
2022/04/10 01:07:05;;;;;;;7.53;2.50;;;;;;;;;;5055190;28;20040;-29
2022/04/10 01:09:34;;;;;;;8.95;2.47;;;;;;;;;;5053909;28;20048;-27
2022/04/10 01:12:00;;;;;;;8.18;2.50;;;;;;;;;;5053459;28;20048;-27
2022/04/10 01:14:26;;;;;;;10.13;2.72;;;;;;;;;;5053939;28;20394;-28
2022/04/10 01:16:53;;;;;;;7.10;2.78;;;;;;;;;;5053926;28;20041;-28
2022/04/10 01:19:20;;;;;;;11.43;2.85;;;;;;;;;;5053795;28;20052;-28
2022/04/10 01:21:48;;;;;;;11.23;2.60;;;;;;;;;;5053892;28;20037;-29
2022/04/10 01:24:14;;;;;;;8.50;2.63;;;;;;;;;;5053774;28;20052;-28
2022/04/10 01:26:41;;;;;;;6.60;2.67;;;;;;;;;;5053624;28;20513;-33
2022/04/10 01:29:11;;;;;;;8.65;3.55;;;;;;;;;;5052991;28;20091;-33
2022/04/10 01:31:38;;;;;;;7.97;2.72;;;;;;;;;;5053339;28;20094;-29
2022/04/10 01:34:06;;;;;;;10.98;3.13;;;;;;;;;;5074079;28;20492;-30
2022/04/10 01:36:33;;;;;;;9.18;3.05;;;;;;;;;;5082549;22;20066;-30
2022/04/10 01:39:01;;;;;;;8.57;3.17;;;;;;;;;;5053290;28;20037;-30
2022/04/10 01:41:28;;;;;;;7.30;3.03;;;;;;;;;;5052810;28;20051;-30
2022/04/10 01:43:55;;;;;;;10.60;3.30;;;;;;;;;;5071889;28;20393;-31
2022/04/10 01:46:23;;;;;;;7.78;2.88;;;;;;;;;;5073028;28;20036;-32
2022/04/10 01:48:49;;;;;;;14.80;3.50;;;;;;;;;;5073011;28;20092;-29
2022/04/10 01:51:15;;;;;;;8.10;3.05;;;;;;;;;;5072781;28;20492;-34
2022/04/10 01:53:42;;;;;;;11.18;3.22;;;;;;;;;;5072883;28;20091;-35
2022/04/10 01:56:09;;;;;;;12.30;3.17;;;;;;;;;;5072864;28;20032;-31
2022/04/10 01:58:36;;;;;;;11.27;3.60;;;;;;;;;;5071944;28;20048;-30
2022/04/10 02:01:04;;;;;;;8.68;2.80;;;;;;;;;;5054484;28;20045;-29
2022/04/10 02:03:30;;;;;;;11.30;2.75;;;;;;;;;;5072396;28;20211;-30
2022/04/10 02:05:56;;;;;;;11.45;2.70;;;;;;;;;;5072526;28;20117;-30
2022/04/10 02:08:22;;;;;;;7.05;2.90;;;;;;;;;;5072472;28;20033;-29
2022/04/10 02:10:48;;;;;;;11.07;3.35;;;;;;;;;;5072107;28;20040;-30
2022/04/10 02:13:14;;;;;;;10.82;2.63;;;;;;;;;;5054309;28;20043;-29
2022/04/10 02:15:40;;;;;;;11.48;3.95;;;;;;;;;;5072388;28;20032;-30
2022/04/10 02:18:06;;;;;;;11.82;3.00;;;;;;;;;;5072072;28;20036;-31
2022/04/10 02:20:33;;;;;;;9.88;3.08;;;;;;;;;;5072317;28;20607;-33
2022/04/10 02:22:59;;;;;;;12.20;3.38;;;;;;;;;;5071952;28;20043;-32
2022/04/10 02:25:25;;;;;;;11.18;3.35;;;;;;;;;;5054473;28;20048;-32
2022/04/10 02:27:52;;;;;;;7.88;3.20;;;;;;;;;;5072266;28;20041;-30
2022/04/10 02:30:18;;;;;;;6.22;2.38;;;;;;;;;;5072153;28;20045;-30
2022/04/10 02:32:44;;;;;;;10.93;3.25;;;;;;;;;;5072205;28;20040;-33
2022/04/10 02:35:10;;;;;;;10.65;3.75;;;;;;;;;;5054055;28;20079;-30
2022/04/10 02:37:37;;;;;;;7.60;2.85;;;;;;;;;;5071947;28;20039;-30
2022/04/10 02:40:07;;;;;;;9.75;3.35;;;;;;;;;;5053790;28;20040;-30
2022/04/10 02:42:34;;;;;;;10.85;3.05;;;;;;;;;;5072287;28;20040;-32
2022/04/10 02:45:01;;;;;;;9.00;3.03;;;;;;;;;;5072090;28;20420;-31
2022/04/10 02:47:28;;;;;;;9.35;2.78;;;;;;;;;;5071799;28;20041;-32
2022/04/10 02:49:54;;;;;;;11.45;2.63;;;;;;;;;;5071938;28;20055;-29
2022/04/10 02:52:20;;;;;;;9.40;3.00;;;;;;;;;;5071376;28;20048;-29
2022/04/10 02:54:46;;;;;;;10.43;3.00;;;;;;;;;;5071608;28;20045;-30
2022/04/10 02:57:12;;;;;;;10.45;4.00;;;;;;;;;;5071891;28;20039;-31
2022/04/10 02:59:38;;;;;;;15.07;3.63;;;;;;;;;;5071780;28;20115;-31
2022/04/10 03:02:04;;;;;;;8.50;2.58;;;;;;;;;;5071550;28;20079;-32
2022/04/10 03:04:30;;;;;;;12.07;2.88;;;;;;;;;;5071613;28;20128;-31
2022/04/10 03:06:57;;;;;;;10.77;2.95;;;;;;;;;;5071846;28;20048;-29
2022/04/10 03:09:23;;;;;;;8.80;3.00;;;;;;;;;;5071379;28;20045;-31
2022/04/10 03:11:49;;;;;;;8.30;2.60;;;;;;;;;;5071561;28;20079;-32
2022/04/10 03:14:16;;;;;;;13.27;3.22;;;;;;;;;;5071488;28;20033;-29
2022/04/10 03:16:42;;;;;;;7.82;3.00;;;;;;;;;;5062096;28;20036;-31
2022/04/10 03:19:08;;;;;;;9.23;3.45;;;;;;;;;;5071357;28;20033;-29
2022/04/10 03:21:35;;;;;;;11.55;3.17;;;;;;;;;;5071795;28;20041;-31
2022/04/10 03:24:04;;;;;;;8.02;3.17;;;;;;;;;;5075378;28;20043;-32
2022/04/10 03:26:30;;;;;;;9.07;3.05;;;;;;;;;;5075654;28;20181;-30
2022/04/10 03:28:56;;;;;;;12.88;3.30;;;;;;;;;;5075500;28;20404;-30
2022/04/10 03:31:23;;;;;;;13.23;3.10;;;;;;;;;;5066458;28;20393;-29
2022/04/10 03:33:50;;;;;;;8.13;2.83;;;;;;;;;;5055498;28;20033;-31
2022/04/10 03:36:16;;;;;;;16.10;3.58;;;;;;;;;;5055214;28;20041;-28
2022/04/10 03:38:42;;;;;;;9.43;2.65;;;;;;;;;;5055658;28;20037;-29
2022/04/10 03:41:08;;;;;;;8.63;3.38;;;;;;;;;;5055592;28;20051;-28
2022/04/10 03:43:34;;;;;;;9.93;3.33;;;;;;;;;;5055351;28;20112;-30
2022/04/10 03:46:01;;;;;;;8.65;3.35;;;;;;;;;;5055489;28;20041;-28
2022/04/10 03:48:27;;;;;;;9.52;3.10;;;;;;;;;;5055489;28;20393;-28
2022/04/10 03:50:54;;;;;;;8.52;2.70;;;;;;;;;;5055684;28;20079;-28
2022/04/10 03:53:20;;;;;;;9.63;3.65;;;;;;;;;;5055444;28;20033;-28
2022/04/10 03:55:47;;;;;;;9.20;2.80;;;;;;;;;;5055445;28;20037;-29
2022/04/10 03:58:13;;;;;;;11.55;3.15;;;;;;;;;;5054844;28;20048;-28
2022/04/10 04:00:40;;;;;;;12.13;2.67;;;;;;;;;;5054897;28;20033;-28
2022/04/10 04:03:06;;;;;;;9.60;2.83;;;;;;;;;;5055398;28;20127;-29
2022/04/10 04:05:32;;;;;;;8.32;2.55;;;;;;;;;;5054894;28;20494;-29
2022/04/10 04:07:58;;;;;;;6.43;2.88;;;;;;;;;;5053624;28;20041;-28
2022/04/10 04:10:24;;;;;;;9.70;2.80;;;;;;;;;;5054739;28;20040;-30
2022/04/10 04:12:51;;;;;;;7.15;2.70;;;;;;;;;;5054899;28;20036;-29
2022/04/10 04:15:17;;;;;;;10.27;3.15;;;;;;;;;;5054989;28;20044;-29
2022/04/10 04:17:43;;;;;;;10.52;2.67;;;;;;;;;;5054967;28;20482;-28
2022/04/10 04:20:09;;;;;;;9.50;2.95;;;;;;;;;;5054951;28;20463;-30
2022/04/10 04:22:36;;;;;;;15.10;3.00;;;;;;;;;;5053581;28;20085;-35
2022/04/10 04:25:04;;;;;;;7.95;2.60;;;;;;;;;;5054792;28;20091;-29
2022/04/10 04:27:30;;;;;;;8.63;3.42;;;;;;;;;;5054678;28;20133;-28
2022/04/10 04:29:56;;;;;;;8.88;2.80;;;;;;;;;;5054731;28;20060;-30
2022/04/10 04:32:22;;;;;;;7.30;2.22;;;;;;;;;;5054096;28;20138;-30
2022/04/10 04:34:48;;;;;;;8.80;2.40;;;;;;;;;;5053430;28;20094;-30
2022/04/10 04:37:14;;;;;;;3.08;1.90;;;;;;;;;;5054311;28;20040;-29
2022/04/10 04:39:40;;;;;;;8.30;1.90;;;;;;;;;;5055494;28;20041;-28
2022/04/10 04:42:07;;;;;;;8.68;1.98;;;;;;;;;;5054629;28;20044;-29
2022/04/10 04:44:33;;;;;;;5.93;1.95;;;;;;;;;;5054317;28;20044;-30
2022/04/10 04:46:59;;;;;;;9.05;2.75;;;;;;;;;;5054363;28;20045;-28
2022/04/10 04:49:26;;;;;;;8.77;2.75;;;;;;;;;;5052746;28;20037;-28
2022/04/10 04:51:53;;;;;;;8.27;2.60;;;;;;;;;;5054136;28;20049;-28
2022/04/10 04:54:19;;;;;;;6.75;2.13;;;;;;;;;;5053605;28;20052;-28
2022/04/10 04:56:45;;;;;;;5.38;2.13;;;;;;;;;;5052495;28;20070;-29
2022/04/10 04:59:14;;;;;;;9.10;2.45;;;;;;;;;;5053996;28;20041;-29
2022/04/10 05:01:44;;;;;;;7.90;2.25;;;;;;;;;;5054585;28;20041;-27
2022/04/10 05:04:11;;;;;;;9.70;2.65;;;;;;;;;;5053939;28;20045;-28
2022/04/10 05:06:38;;;;;;;7.28;1.95;;;;;;;;;;5053577;28;20047;-29
2022/04/10 05:09:04;;;;;;;5.90;2.30;;;;;;;;;;5054153;28;20116;-29
2022/04/10 05:11:30;;;;;;;7.75;2.20;;;;;;;;;;5053568;28;20083;-28
2022/04/10 05:13:57;;;;;;;6.70;2.25;;;;;;;;;;5053552;28;20067;-29
2022/04/10 05:16:23;;;;;;;8.32;2.17;;;;;;;;;;5053384;28;20040;-28
2022/04/10 05:18:49;;;;;;;6.57;2.15;;;;;;;;;;5053317;28;20045;-28
2022/04/10 05:21:16;;;;;;;9.45;2.45;;;;;;;;;;5053155;28;20049;-28
2022/04/10 05:23:42;;;;;;;7.88;2.65;;;;;;;;;;5053716;28;20497;-28
2022/04/10 05:26:08;;;;;;;12.35;3.20;;;;;;;;;;5054114;28;20459;-27
2022/04/10 05:28:35;;;;;;;9.63;2.50;;;;;;;;;;5054155;28;20080;-29
2022/04/10 05:31:04;;;;;;;10.05;2.92;;;;;;;;;;5054087;28;20044;-29
2022/04/10 05:33:33;;;;;;;8.40;2.80;;;;;;;;;;5053715;28;20135;-29
2022/04/10 05:35:59;;;;;;;8.20;2.53;;;;;;;;;;5052832;28;20033;-27
2022/04/10 05:38:25;;;;;;;7.25;2.58;;;;;;;;;;5052503;28;20041;-29
2022/04/10 05:40:53;;;;;;;13.70;2.97;;;;;;;;;;5052394;28;20045;-29
2022/04/10 05:43:23;;;;;;;10.35;2.30;;;;;;;;;;5051962;28;20037;-30
2022/04/10 05:45:50;;;;;;;6.22;2.55;;;;;;;;;;5056423;28;20513;-30
2022/04/10 05:48:16;;;;;;;9.52;2.30;;;;;;;;;;5063169;28;20051;-31
2022/04/10 05:50:42;;;;;;;8.38;2.53;;;;;;;;;;5057287;28;20056;-30
2022/04/10 05:53:09;;;;;;;4.35;1.77;;;;;;;;;;5056955;28;20032;-29
2022/04/10 05:55:36;;;;;;;3.85;1.90;;;;;;;;;;5056732;28;20041;-30
2022/04/10 05:58:04;;;;;;;5.80;1.88;;;;;;;;;;5040161;28;20068;-30
2022/04/10 06:00:30;;;;;;;2.88;2.03;;;;;;;;;;5061103;28;20032;-33
2022/04/10 06:03:02;;;;;;;6.05;1.70;;;;;;;;;;5059462;28;20040;-29
2022/04/10 06:05:29;;;;;;;3.72;1.83;;;;;;;;;;5060473;28;20033;-29
2022/04/10 06:07:55;;;;;;;4.43;1.52;;;;;;;;;;5058694;28;20093;-29
2022/04/10 06:10:21;;;;;;;3.83;1.63;;;;;;;;;;5047322;28;20094;-30
2022/04/10 06:12:47;;;;;;;5.32;1.52;;;;;;;;;;5058024;28;20379;-31
2022/04/10 06:15:13;;;;;;;5.70;1.52;;;;;;;;;;5063959;28;20482;-29
2022/04/10 06:17:39;;;;;;;3.67;1.40;;;;;;;;;;5067940;28;20093;-30
2022/04/10 06:20:06;;;;;;;5.30;2.00;;;;;;;;;;5060151;28;20045;-28
2022/04/10 06:22:32;;;;;;;4.05;1.52;;;;;;;;;;5045557;28;20052;-35
2022/04/10 06:24:58;;;;;;;2.40;1.20;;;;;;;;;;5063575;28;20049;-32
2022/04/10 06:27:24;;;;;;;3.20;1.38;;;;;;;;;;5054205;28;20094;-31
2022/04/10 06:29:50;;;;;;;4.38;1.38;;;;;;;;;;5057521;28;20507;-32
2022/04/10 06:32:16;;;;;;;1.85;1.42;;;;;;;;;;5060370;28;20163;-31
2022/04/10 06:34:43;;;;;;;4.63;1.55;;;;;;;;;;5059391;28;20045;-30
2022/04/10 06:37:10;;;;;;;3.47;1.20;;;;;;;;;;5059414;28;20040;-29
2022/04/10 06:39:36;;;;;;;6.07;1.42;;;;;;;;;;5070653;28;20040;-29
2022/04/10 06:42:05;;;;;;;4.97;1.73;;;;;;;;;;5071150;28;20041;-30
2022/04/10 06:44:32;;;;;;;3.00;1.33;;;;;;;;;;5054141;28;20048;-30
2022/04/10 06:46:58;;;;;;;5.03;1.52;;;;;;;;;;5072271;28;20045;-30
2022/04/10 06:49:24;;;;;;;4.38;1.67;;;;;;;;;;5070094;28;20051;-31
2022/04/10 06:51:50;;;;;;;3.22;1.65;;;;;;;;;;5071907;28;20082;-29
2022/04/10 06:54:16;;;;;;;5.30;1.40;;;;;;;;;;5072302;28;20051;-33
2022/04/10 06:56:44;;;;;;;5.45;1.83;;;;;;;;;;5072282;28;20077;-30
2022/04/10 06:59:10;;;;;;;4.90;1.90;;;;;;;;;;5070851;28;20570;-30
2022/04/10 07:01:36;;;;;;;3.78;1.38;;;;;;;;;;5070729;28;20044;-30
2022/04/10 07:04:03;;;;;;;5.75;1.80;;;;;;;;;;5071823;28;20494;-31
2022/04/10 07:06:29;;;;;;;6.25;1.67;;;;;;;;;;5072162;28;20040;-28
2022/04/10 07:08:56;;;;;;;3.50;1.50;;;;;;;;;;5071878;28;20147;-32
2022/04/10 07:11:22;;;;;;;4.35;1.35;;;;;;;;;;5072429;28;20052;-32
2022/04/10 07:13:48;;;;;;;6.80;1.60;;;;;;;;;;5071911;28;20074;-33
2022/04/10 07:16:14;;;;;;;5.13;1.73;;;;;;;;;;5071453;28;20316;-32
2022/04/10 07:18:41;;;;;;;7.13;1.40;;;;;;;;;;5053810;28;20036;-32
2022/04/10 07:21:07;;;;;;;4.57;1.70;;;;;;;;;;5070226;28;20048;-30
2022/04/10 07:23:42;;;;;;;7.90;1.92;;;;;;;;;;5061082;28;20040;-30
2022/04/10 07:26:09;;;;;;;5.30;1.80;;;;;;;;;;5058714;28;20075;-30
2022/04/10 07:28:35;;;;;;;5.43;1.73;;;;;;;;;;5053744;28;20125;-31
2022/04/10 07:31:01;;;;;;;1.98;1.20;;;;;;;;;;5067620;28;20037;-30
2022/04/10 07:33:28;;;;;;;5.53;1.40;;;;;;;;;;5058533;28;20033;-30
2022/04/10 07:35:54;;;;;;;4.30;1.40;;;;;;;;;;5071207;28;20036;-31
2022/04/10 07:38:21;;;;;;;8.13;2.05;;;;;;;;;;5072069;28;20390;-30
2022/04/10 07:40:47;;;;;;;3.72;1.48;;;;;;;;;;5071466;28;20087;-30
2022/04/10 07:43:13;;;;;;;3.92;1.42;;;;;;;;;;5071197;28;20409;-31
2022/04/10 07:48:24;;;;;;;4.15;1.70;;;;;;;;;;5058243;28;20059;-33
2022/04/10 07:50:50;;;;;;;4.88;1.40;;;;;;;;;;5070311;28;20036;-33
2022/04/10 07:53:16;;;;;;;5.30;1.85;;;;;;;;;;5071537;28;20085;-30
2022/04/10 07:55:43;;;;;;;7.60;1.88;;;;;;;;;;5070925;28;20032;-30
2022/04/10 07:58:09;;;;;;;8.35;2.28;;;;;;;;;;5071417;28;20043;-31
2022/04/10 08:00:35;;;;;;;3.05;1.80;;;;;;;;;;5069844;28;20040;-29
2022/04/10 08:03:01;;;;;;;6.00;1.85;;;;;;;;;;5071932;28;20041;-31
2022/04/10 08:05:28;;;;;;;5.00;1.70;;;;;;;;;;5070850;28;20033;-30
2022/04/10 08:07:54;;;;;;;6.18;1.95;;;;;;;;;;5073708;28;20039;-29
2022/04/10 08:10:20;;;;;;;4.90;2.30;;;;;;;;;;5075917;28;20111;-28
2022/04/10 08:12:47;;;;;;;5.40;1.65;;;;;;;;;;5075068;28;20047;-27
2022/04/10 08:15:14;;;;;;;3.55;1.50;;;;;;;;;;5075255;28;20036;-30
2022/04/10 08:17:41;;;;;;;3.00;1.60;;;;;;;;;;5075391;28;20040;-29
2022/04/10 08:20:08;;;;;;;4.90;1.70;;;;;;;;;;5057183;28;20094;-28
2022/04/10 08:22:36;;;;;;;5.15;1.70;;;;;;;;;;5075768;28;20465;-28
2022/04/10 08:25:12;;;;;;;7.38;1.77;;;;;;;;;;5076139;28;20090;-30
2022/04/10 08:27:39;;;;;;;5.80;1.65;;;;;;;;;;5075136;28;20040;-27
2022/04/10 08:30:08;;;;;;;5.50;1.77;;;;;;;;;;5074701;28;20181;-29
2022/04/10 08:32:37;;;;;;;5.32;1.55;;;;;;;;;;5074880;28;20113;-28
2022/04/10 08:35:04;;;;;;;4.32;1.70;;;;;;;;;;5074585;28;20037;-29
2022/04/10 08:37:30;;;;;;;6.05;1.50;;;;;;;;;;5074656;28;20517;-30
2022/04/10 08:39:56;;;;;;;6.75;1.75;;;;;;;;;;5074727;28;20396;-28
2022/04/10 08:42:22;;;;;;;8.50;2.03;;;;;;;;;;5075509;28;20040;-29
2022/04/10 08:44:49;;;;;;;7.30;1.98;;;;;;;;;;5075453;28;20127;-28
2022/04/10 08:47:20;;;;;;;6.88;1.90;;;;;;;;;;5075008;28;20044;-29
2022/04/10 08:49:47;;;;;;;6.18;1.58;;;;;;;;;;5075540;28;20420;-28
2022/04/10 08:52:13;;;;;;;8.40;2.03;;;;;;;;;;5074999;28;20041;-29
2022/04/10 08:54:41;;;;;;;6.05;2.20;;;;;;;;;;5074548;28;20040;-29
2022/04/10 08:57:07;;;;;;;5.40;1.90;;;;;;;;;;5074831;28;20040;-27
2022/04/10 08:59:33;;;;;;;4.85;1.98;;;;;;;;;;5074727;28;20482;-29
2022/04/10 09:01:59;;;;;;;5.60;1.50;;;;;;;;;;5074512;28;20409;-30
2022/04/10 09:04:25;;;;;;;5.43;1.65;;;;;;;;;;5074923;28;20110;-28
2022/04/10 09:07:05;;;;;;;6.97;1.70;;;;;;;;;;5074714;28;20502;-28
2022/04/10 09:09:32;;;;;;;6.97;1.83;;;;;;;;;;5075026;28;20385;-29
2022/04/10 09:11:59;;;;;;;4.35;1.90;;;;;;;;;;5074595;28;20186;-29
2022/04/10 09:14:29;;;;;;;5.90;1.80;;;;;;;;;;5074460;28;20044;-29
2022/04/10 09:17:14;;;;;;;3.95;1.50;;;;;;;;;;5074880;28;20490;-29
2022/04/10 09:19:50;;;;;;;3.88;1.23;;;;;;;;;;5073423;28;20037;-28
2022/04/10 09:22:33;;;;;;;5.25;1.73;;;;;;;;;;5074176;28;20045;-29
2022/04/10 09:25:10;;;;;;;5.32;1.80;;;;;;;;;;5074591;28;20037;-28
2022/04/10 09:27:37;;;;;;;6.13;1.70;;;;;;;;;;5073924;28;20052;-30
2022/04/10 09:30:07;;;;;;;7.43;1.65;;;;;;;;;;5074135;28;20036;-28
2022/04/10 09:32:52;;;;;;;3.40;1.70;;;;;;;;;;5074417;28;20124;-29
2022/04/10 09:35:19;;;;;;;4.40;1.52;;;;;;;;;;5074481;28;20047;-29
2022/04/10 09:37:56;;;;;;;6.15;1.50;;;;;;;;;;5073767;28;20041;-29
2022/04/10 09:40:32;;;;;;;7.57;2.03;;;;;;;;;;5056422;28;20043;-28
2022/04/10 09:43:05;;;;;;;6.72;2.08;;;;;;;;;;5073759;28;20040;-30
2022/04/10 09:45:32;;;;;;;5.73;1.73;;;;;;;;;;5073800;28;20036;-29
2022/04/10 09:48:16;;;;;;;7.13;1.73;;;;;;;;;;5074126;28;20068;-30
2022/04/10 09:50:42;;;;;;;8.32;2.05;;;;;;;;;;5074117;28;20040;-29
2022/04/10 09:53:10;;;;;;;5.82;2.92;;;;;;;;;;5074618;28;20037;-30
2022/04/10 09:55:37;;;;;;;4.55;1.65;;;;;;;;;;5074794;28;20128;-30
2022/04/10 09:58:09;;;;;;;4.63;1.50;;;;;;;;;;5074227;28;20536;-30
2022/04/10 10:00:37;;;;;;;4.88;1.70;;;;;;;;;;5073968;28;20563;-30
2022/04/10 10:03:05;;;;;;;5.47;1.50;;;;;;;;;;5073541;28;20063;-31
2022/04/10 10:05:32;;;;;;;3.53;1.30;;;;;;;;;;5055603;28;20050;-31
2022/04/10 10:07:59;;;;;;;5.00;1.75;;;;;;;;;;5055453;28;20037;-30
2022/04/10 10:10:28;;;;;;;7.55;1.85;;;;;;;;;;5073048;28;20131;-28
2022/04/10 10:12:56;;;;;;;5.88;1.83;;;;;;;;;;5073278;28;20078;-30
2022/04/10 10:15:23;;;;;;;10.23;2.00;;;;;;;;;;5072418;28;20052;-29
2022/04/10 10:17:49;;;;;;;5.30;1.73;;;;;;;;;;5072404;28;20107;-30
2022/04/10 10:20:17;;;;;;;5.80;1.90;;;;;;;;;;5072271;28;20637;-29
2022/04/10 10:22:43;;;;;;;4.53;1.90;;;;;;;;;;5072593;28;20394;-30
2022/04/10 10:25:09;;;;;;;5.63;1.80;;;;;;;;;;5071967;28;20186;-36
2022/04/10 10:27:54;;;;;;;3.60;1.20;;;;;;;;;;5054878;28;20052;-31
2022/04/10 10:30:24;;;;;;;5.97;1.50;;;;;;;;;;5072536;28;20083;-30
2022/04/10 10:32:56;;;;;;;6.05;1.65;;;;;;;;;;5072090;28;20040;-31
2022/04/10 10:35:34;;;;;;;5.32;2.10;;;;;;;;;;5072836;28;20393;-29
2022/04/10 10:38:00;;;;;;;5.18;1.58;;;;;;;;;;5072515;28;20093;-28
2022/04/10 10:40:26;;;;;;;7.05;1.58;;;;;;;;;;5072412;28;20041;-30
2022/04/10 10:42:56;;;;;;;5.75;1.95;;;;;;;;;;5072412;28;20048;-30
2022/04/10 10:45:33;;;;;;;5.85;1.80;;;;;;;;;;5072513;28;20056;-31
2022/04/10 10:48:25;;;;;;;6.78;1.90;;;;;;;;;;5072896;28;20436;-30
2022/04/10 10:50:52;;;;;;;4.13;1.45;;;;;;;;;;5061966;28;20520;-30
2022/04/10 10:53:38;;;;;;;4.25;1.90;;;;;;;;;;5072525;28;20032;-30
2022/04/10 10:56:05;;;;;;;3.63;1.75;;;;;;;;;;5072589;28;20033;-31
2022/04/10 10:58:32;;;;;;;3.78;2.35;;;;;;;;;;5072443;28;20036;-30
2022/04/10 11:01:07;;;;;;;5.68;1.63;;;;;;;;;;5072441;28;20072;-31
2022/04/10 11:03:33;;;;;;;2.63;1.30;;;;;;;;;;5070121;28;20227;-30
2022/04/10 11:06:06;;;;;;;5.00;1.33;;;;;;;;;;5072193;28;20120;-29
2022/04/10 11:08:41;;;;;;;3.53;1.70;;;;;;;;;;5071829;28;20401;-30
2022/04/10 11:11:07;;;;;;;6.78;1.85;;;;;;;;;;5071643;28;20041;-31
2022/04/10 11:13:43;;;;;;;5.20;1.77;;;;;;;;;;5071822;28;20069;-31
2022/04/10 11:16:10;;;;;;;6.95;1.75;;;;;;;;;;5072067;28;20094;-30
2022/04/10 11:18:41;;;;;;;5.25;1.77;;;;;;;;;;5071653;28;20087;-29
2022/04/10 11:21:27;;;;;;;3.28;1.27;;;;;;;;;;5071805;28;20086;-29
2022/04/10 11:23:55;;;;;;;4.07;1.40;;;;;;;;;;5071561;28;20041;-30
2022/04/10 11:26:22;;;;;;;2.53;1.13;;;;;;;;;;5054114;28;20408;-30
2022/04/10 11:28:57;;;;;;;4.63;1.30;;;;;;;;;;5071804;28;20046;-30
2022/04/10 11:31:28;;;;;;;4.28;1.30;;;;;;;;;;5071743;28;20036;-29
2022/04/10 11:33:56;;;;;;;3.38;1.20;;;;;;;;;;5070208;28;20102;-30
2022/04/10 11:36:22;;;;;;;3.88;1.48;;;;;;;;;;5071805;28;20090;-31
2022/04/10 11:39:07;;;;;;;5.40;1.30;;;;;;;;;;5072619;28;20028;-33
2022/04/10 11:41:34;;;;;;;4.10;1.30;;;;;;;;;;5073006;28;20052;-30
2022/04/10 11:44:00;;;;;;;4.05;1.30;;;;;;;;;;5074812;28;20123;-30
2022/04/10 11:46:30;;;;;;;3.65;1.20;;;;;;;;;;5076197;28;20178;-30
2022/04/10 11:48:56;;;;;;;5.90;1.40;;;;;;;;;;5076377;28;20048;-29
2022/04/10 11:51:22;;;;;;;3.95;1.40;;;;;;;;;;5076234;28;20051;-30
2022/04/10 11:53:55;;;;;;;4.80;1.70;;;;;;;;;;5076052;28;20032;-29
2022/04/10 11:56:21;;;;;;;3.45;1.60;;;;;;;;;;5057867;28;20044;-30
2022/04/10 11:58:48;;;;;;;5.60;1.50;;;;;;;;;;5075642;28;20462;-30
2022/04/10 12:01:14;;;;;;;3.85;1.30;;;;;;;;;;5055885;28;20040;-31
2022/04/10 12:03:41;;;;;;;4.68;1.20;;;;;;;;;;5055586;28;20402;-31
2022/04/10 12:06:09;;;;;;;4.93;1.33;;;;;;;;;;5072717;28;20115;-29
2022/04/10 12:08:35;;;;;;;1.63;1.00;;;;;;;;;;5075514;28;20048;-30
2022/04/10 12:11:02;;;;;;;3.72;1.27;;;;;;;;;;5075499;28;20040;-30
2022/04/10 12:13:29;;;;;;;5.43;1.52;;;;;;;;;;5075484;28;20037;-30
2022/04/10 12:16:02;;;;;;;3.85;1.50;;;;;;;;;;5074914;28;20063;-29
2022/04/10 12:18:28;;;;;;;3.28;1.38;;;;;;;;;;5074569;28;20064;-31
2022/04/10 12:21:01;;;;;;;7.00;1.40;;;;;;;;;;5064447;28;20478;-30
2022/04/10 12:23:27;;;;;;;3.17;1.15;;;;;;;;;;5054884;28;20040;-30
2022/04/10 12:25:58;;;;;;;4.50;1.70;;;;;;;;;;5068217;28;20036;-30
2022/04/10 12:28:24;;;;;;;3.15;1.40;;;;;;;;;;5074499;28;20048;-30
2022/04/10 12:30:51;;;;;;;2.72;1.35;;;;;;;;;;5074586;28;20040;-40
2022/04/10 12:33:18;;;;;;;1.52;0.90;;;;;;;;;;5074922;28;20094;-30
2022/04/10 12:35:46;;;;;;;2.38;1.42;;;;;;;;;;5074509;28;20048;-29
2022/04/10 12:38:27;;;;;;;4.50;1.08;;;;;;;;;;5074639;28;20393;-30
2022/04/10 12:41:03;;;;;;;2.33;1.20;;;;;;;;;;5074727;28;20048;-30
2022/04/10 12:43:30;;;;;;;2.63;1.17;;;;;;;;;;5067714;28;20052;-31
2022/04/10 12:46:07;;;;;;;3.65;1.10;;;;;;;;;;5068065;28;20719;-34
2022/04/10 12:48:34;;;;;;;4.22;1.50;;;;;;;;;;5066164;28;20036;-35
2022/04/10 12:51:18;;;;;;;3.00;1.50;;;;;;;;;;5073872;28;20409;-31
2022/04/10 12:53:49;;;;;;;4.30;1.20;;;;;;;;;;5073777;28;20041;-30
2022/04/10 12:56:21;;;;;;;4.78;1.42;;;;;;;;;;5066295;28;20041;-33
2022/04/10 12:58:49;;;;;;;5.20;1.20;;;;;;;;;;5056233;28;20033;-33
2022/04/10 13:01:29;;;;;;;3.70;1.35;;;;;;;;;;5062059;28;20040;-33
2022/04/10 13:03:56;;;;;;;3.05;1.33;;;;;;;;;;5055041;28;20060;-32
2022/04/10 13:06:27;;;;;;;3.10;1.20;;;;;;;;;;5073796;28;20071;-33
2022/04/10 13:08:53;;;;;;;7.20;1.52;;;;;;;;;;5073742;28;20489;-30
2022/04/10 13:11:19;;;;;;;4.13;1.27;;;;;;;;;;5072627;28;20121;-33
2022/04/10 13:14:06;;;;;;;2.45;0.90;;;;;;;;;;5066039;28;20029;-34
2022/04/10 13:16:36;;;;;;;2.45;1.17;;;;;;;;;;5066315;28;20044;-33
2022/04/10 13:19:03;;;;;;;3.92;1.40;;;;;;;;;;5054054;28;20508;-32
2022/04/10 13:21:30;;;;;;;2.45;1.13;;;;;;;;;;5050165;28;20125;-34
2022/04/10 13:23:56;;;;;;;3.17;1.20;;;;;;;;;;5072530;28;20098;-30
2022/04/10 13:26:26;;;;;;;6.00;1.63;;;;;;;;;;5060462;28;20056;-30
2022/04/10 13:28:52;;;;;;;3.38;1.13;;;;;;;;;;5074026;28;20036;-29
2022/04/10 13:31:19;;;;;;;4.28;1.90;;;;;;;;;;5072948;28;20513;-32
2022/04/10 13:33:45;;;;;;;4.60;1.10;;;;;;;;;;5074057;28;20033;-33
2022/04/10 13:36:11;;;;;;;3.63;1.00;;;;;;;;;;5066740;28;20449;-33
2022/04/10 13:38:38;;;;;;;3.08;1.00;;;;;;;;;;5057415;28;20045;-35
2022/04/10 13:41:04;;;;;;;3.22;1.27;;;;;;;;;;5067314;28;20081;-33
2022/04/10 13:43:31;;;;;;;4.38;1.10;;;;;;;;;;5056220;28;20041;-32
2022/04/10 13:45:57;;;;;;;3.65;1.08;;;;;;;;;;5073362;28;20041;-33
2022/04/10 13:48:23;;;;;;;2.72;1.10;;;;;;;;;;5071420;28;20041;-33
2022/04/10 13:50:49;;;;;;;3.45;1.27;;;;;;;;;;5065135;28;20563;-34
2022/04/10 13:53:15;;;;;;;3.72;0.95;;;;;;;;;;5065565;28;20029;-33
2022/04/10 13:55:42;;;;;;;3.65;1.13;;;;;;;;;;5065435;28;20475;-32
2022/04/10 13:58:08;;;;;;;2.53;1.00;;;;;;;;;;5068003;28;20325;-33
2022/04/10 14:00:34;;;;;;;2.30;1.10;;;;;;;;;;5063160;28;20035;-35
2022/04/10 14:03:01;;;;;;;2.15;1.05;;;;;;;;;;5060310;28;20098;-36
2022/04/10 14:05:27;;;;;;;2.58;1.02;;;;;;;;;;5062623;28;20075;-35
2022/04/10 14:07:53;;;;;;;2.85;1.10;;;;;;;;;;5071541;28;20084;-31
2022/04/10 14:10:20;;;;;;;2.90;1.13;;;;;;;;;;5039144;28;20510;-31
2022/04/10 14:12:46;;;;;;;2.63;1.10;;;;;;;;;;5073424;28;20135;-30
2022/04/10 14:15:12;;;;;;;3.50;1.00;;;;;;;;;;5073521;28;20170;-30
2022/04/10 14:17:38;;;;;;;2.58;1.10;;;;;;;;;;5073460;28;20112;-31
2022/04/10 14:20:04;;;;;;;2.13;1.30;;;;;;;;;;5055494;28;20063;-30
2022/04/10 14:22:31;;;;;;;2.88;1.33;;;;;;;;;;5055466;28;20134;-30
2022/04/10 14:24:57;;;;;;;2.47;1.02;;;;;;;;;;5073775;28;20529;-30
2022/04/10 14:27:23;;;;;;;4.05;1.00;;;;;;;;;;5073402;28;20431;-31
2022/04/10 14:29:49;;;;;;;4.63;1.40;;;;;;;;;;5073103;28;20414;-31
2022/04/10 14:32:15;;;;;;;2.38;0.90;;;;;;;;;;5055380;28;20145;-30
2022/04/10 14:34:42;;;;;;;3.33;1.02;;;;;;;;;;5073127;28;20033;-31
2022/04/10 14:37:08;;;;;;;2.78;1.05;;;;;;;;;;5073495;28;20089;-30
2022/04/10 14:39:34;;;;;;;2.63;0.80;;;;;;;;;;5073486;28;20037;-31
2022/04/10 14:42:01;;;;;;;3.83;1.00;;;;;;;;;;5072487;28;20074;-30
2022/04/10 14:44:27;;;;;;;2.50;0.90;;;;;;;;;;5054709;28;20128;-30
2022/04/10 14:46:53;;;;;;;2.55;0.82;;;;;;;;;;5038442;28;20040;-30